createdAt,value
2022-11-15T00:03:00.109Z,66.23
2022-11-15T00:06:23.485Z,65.79
2022-11-15T00:09:46.349Z,63.95
2022-11-15T00:13:10.810Z,65.16
2022-11-15T00:16:33.888Z,63.78
2022-11-15T00:19:56.646Z,62.52
2022-11-15T00:23:19.259Z,60.81
2022-11-15T00:26:41.845Z,60.31
2022-11-15T00:30:04.546Z,60.04
2022-11-15T00:33:27.407Z,58.62
2022-11-15T00:36:50.246Z,58.52
2022-11-15T00:40:14.792Z,59.29
2022-11-15T00:43:37.978Z,58.14
2022-11-15T00:47:00.916Z,58.25
2022-11-15T00:50:23.730Z,57.35
2022-11-15T00:53:46.423Z,55.82
2022-11-15T00:57:09.643Z,55.88
2022-11-15T01:00:32.250Z,55.15
2022-11-15T01:03:58.713Z,56.41
2022-11-15T01:07:23.824Z,54.43
2022-11-15T01:10:46.173Z,54.49
2022-11-15T01:14:09.065Z,53.79
2022-11-15T01:17:32.939Z,55.15
2022-11-15T01:20:55.997Z,56.68
2022-11-15T01:24:19.116Z,57.04
2022-11-15T01:27:42.307Z,57.22
2022-11-15T01:31:07.685Z,56.00
2022-11-15T01:34:30.599Z,54.51
2022-11-15T01:37:53.170Z,55.69
2022-11-15T01:41:22.576Z,55.82
2022-11-15T01:44:48.181Z,57.64
2022-11-15T01:48:12.937Z,57.27
2022-11-15T01:51:36.349Z,57.71
2022-11-15T01:55:06.165Z,57.70
2022-11-15T01:58:29.056Z,57.57
2022-11-15T02:01:53.070Z,58.67
2022-11-15T02:05:16.220Z,59.22
2022-11-15T02:08:38.750Z,59.16
2022-11-15T02:12:02.419Z,59.45
2022-11-15T02:15:31.380Z,59.17
2022-11-15T02:19:02.603Z,59.29
2022-11-15T02:22:46.857Z,59.89
2022-11-15T02:26:20.262Z,60.49
2022-11-15T02:30:24.225Z,61.46
2022-11-15T02:34:10.822Z,60.82
2022-11-15T02:37:39.678Z,61.01
2022-11-15T02:41:12.989Z,61.42
2022-11-15T02:44:45.002Z,62.54
2022-11-15T02:48:09.510Z,61.40
2022-11-15T02:51:32.335Z,61.78
2022-11-15T02:55:01.183Z,62.94
2022-11-15T02:58:41.600Z,62.60
2022-11-15T03:02:37.607Z,62.49
2022-11-15T03:06:40.613Z,62.37
2022-11-15T03:10:38.184Z,61.98
2022-11-15T03:14:23.951Z,62.98
2022-11-15T03:17:58.279Z,62.58
2022-11-15T03:21:27.122Z,63.45
2022-11-15T03:24:58.538Z,62.96
2022-11-15T03:28:35.655Z,63.24
2022-11-15T03:32:01.013Z,62.48
2022-11-15T03:35:26.302Z,63.42
2022-11-15T03:38:48.937Z,63.42
2022-11-15T03:42:34.892Z,63.71
2022-11-15T03:46:04.177Z,63.30
2022-11-15T03:49:35.891Z,62.79
2022-11-15T03:52:59.990Z,62.13
2022-11-15T03:56:22.498Z,63.18
2022-11-15T03:59:45.217Z,64.04
2022-11-15T04:03:09.863Z,62.05
2022-11-15T04:06:32.821Z,62.28
2022-11-15T04:10:04.517Z,61.89
2022-11-15T04:13:27.484Z,62.89
2022-11-15T04:16:50.045Z,61.84
2022-11-15T04:20:31.652Z,63.12
2022-11-15T04:24:13.195Z,62.37
2022-11-15T04:27:36.203Z,63.44
2022-11-15T04:30:59.089Z,63.74
2022-11-15T04:34:22.555Z,62.04
2022-11-15T04:37:49.109Z,61.88
2022-11-15T04:41:12.220Z,62.78
2022-11-15T04:44:34.869Z,63.16
2022-11-15T04:47:57.545Z,62.73
2022-11-15T04:51:20.738Z,62.86
2022-11-15T04:54:45.002Z,63.39
2022-11-15T04:58:08.674Z,64.07
2022-11-15T05:01:31.705Z,64.16
2022-11-15T05:04:54.395Z,64.32
2022-11-15T05:08:17.055Z,64.86
2022-11-15T05:11:39.713Z,63.70
2022-11-15T05:15:02.296Z,63.34
2022-11-15T05:18:24.937Z,63.28
2022-11-15T05:21:47.608Z,63.17
2022-11-15T05:25:10.956Z,63.66
2022-11-15T05:28:34.557Z,64.16
2022-11-15T05:31:57.726Z,64.43
2022-11-15T05:35:36.782Z,64.09
2022-11-15T05:38:59.277Z,63.79
2022-11-15T05:42:22.240Z,65.06
2022-11-15T05:45:44.749Z,65.56
2022-11-15T05:49:11.988Z,64.75
2022-11-15T05:52:38.182Z,65.53
2022-11-15T05:56:00.897Z,65.72
2022-11-15T05:59:23.473Z,65.16
2022-11-15T06:02:46.158Z,65.14
2022-11-15T06:06:13.641Z,64.95
2022-11-15T06:09:39.159Z,65.26
2022-11-15T06:13:03.635Z,65.29
2022-11-15T06:16:26.614Z,65.79
2022-11-15T06:19:49.150Z,66.11
2022-11-15T06:23:12.345Z,65.87
2022-11-15T06:26:35.584Z,66.28
2022-11-15T06:29:58.128Z,66.51
2022-11-15T06:33:23.493Z,66.69
2022-11-15T06:36:46.396Z,66.84
2022-11-15T06:40:11.106Z,67.62
2022-11-15T06:43:35.107Z,66.83
2022-11-15T06:46:58.437Z,65.64
2022-11-15T06:50:22.004Z,66.60
2022-11-15T06:53:45.214Z,66.72
2022-11-15T06:57:08.050Z,66.54
2022-11-15T07:00:30.667Z,66.12
2022-11-15T07:03:53.087Z,67.36
2022-11-15T07:07:15.600Z,67.15
2022-11-15T07:10:38.360Z,66.46
2022-11-15T07:14:02.213Z,68.00
2022-11-15T07:17:25.092Z,68.31
2022-11-15T07:20:48.001Z,67.54
2022-11-15T07:24:10.640Z,67.92
2022-11-15T07:27:35.646Z,67.94
2022-11-15T07:30:58.123Z,67.51
2022-11-15T07:34:20.846Z,68.63
2022-11-15T07:37:43.388Z,68.54
2022-11-15T07:41:07.540Z,67.71
2022-11-15T07:44:30.789Z,67.55
2022-11-15T07:47:53.859Z,67.88
2022-11-15T07:51:18.025Z,67.41
2022-11-15T07:54:40.824Z,67.70
2022-11-15T07:58:05.221Z,67.90
2022-11-15T08:01:27.927Z,68.06
2022-11-15T08:04:51.031Z,68.32
2022-11-15T08:08:14.086Z,68.09
2022-11-15T08:11:37.324Z,68.23
2022-11-15T08:15:00.226Z,68.62
2022-11-15T08:18:22.590Z,68.04
2022-11-15T08:21:45.433Z,68.02
2022-11-15T08:25:08.268Z,68.13
2022-11-15T08:28:31.034Z,68.00
2022-11-15T08:31:54.266Z,67.91
2022-11-15T08:35:17.763Z,68.45
2022-11-15T08:38:40.454Z,68.35
2022-11-15T08:42:03.153Z,68.48
2022-11-15T08:45:26.185Z,68.61
2022-11-15T08:48:49.319Z,69.09
2022-11-15T08:52:12.050Z,69.67
2022-11-15T08:55:34.660Z,68.78
2022-11-15T08:58:57.214Z,68.70
2022-11-15T09:02:20.062Z,68.54
2022-11-15T09:05:43.073Z,68.73
2022-11-15T09:09:05.984Z,68.35
2022-11-15T09:12:28.785Z,68.00
2022-11-15T09:15:53.194Z,68.24
2022-11-15T09:19:16.718Z,68.32
2022-11-15T09:22:40.640Z,68.87
2022-11-15T09:26:05.162Z,68.46
2022-11-15T09:29:28.006Z,68.63
2022-11-15T09:32:51.061Z,68.88
2022-11-15T09:36:13.797Z,69.11
2022-11-15T09:39:37.731Z,69.15
2022-11-15T09:43:45.215Z,70.80
2022-11-15T09:47:23.832Z,71.27
2022-11-15T09:50:51.612Z,70.71
2022-11-15T09:57:47.646Z,69.28
2022-11-15T10:00:55.411Z,69.48
2022-11-15T10:04:01.314Z,69.33
2022-11-15T10:07:20.771Z,70.20
2022-11-15T10:10:37.064Z,69.76
2022-11-15T10:13:49.609Z,69.49
2022-11-15T10:17:18.913Z,70.44
2022-11-15T10:20:31.834Z,71.92
2022-11-15T10:23:36.119Z,72.73
2022-11-15T10:26:40.940Z,73.37
2022-11-15T10:29:51.250Z,73.44
2022-11-15T10:32:55.598Z,73.00
2022-11-15T10:36:12.383Z,73.04
2022-11-15T10:39:17.003Z,73.83
2022-11-15T10:42:31.870Z,74.86
2022-11-15T10:45:36.955Z,75.11
2022-11-15T10:48:42.641Z,74.23
2022-11-15T10:51:52.380Z,75.49
2022-11-15T10:55:09.375Z,75.27
2022-11-15T10:58:43.833Z,74.94
2022-11-15T11:01:50.375Z,75.46
2022-11-15T11:04:55.477Z,75.10
2022-11-15T11:08:06.788Z,75.25
2022-11-15T11:11:12.162Z,75.62
2022-11-15T11:14:39.415Z,75.51
2022-11-15T11:17:47.188Z,74.85
2022-11-15T11:21:01.334Z,74.69
2022-11-15T11:24:14.103Z,75.98
2022-11-15T11:27:43.056Z,74.66
2022-11-15T11:30:57.587Z,73.28
2022-11-15T11:34:33.223Z,73.99
2022-11-15T11:37:45.178Z,74.86
2022-11-15T11:41:16.726Z,73.93
2022-11-15T11:44:33.387Z,73.37
2022-11-15T11:47:42.734Z,72.78
2022-11-15T11:50:47.965Z,72.48
2022-11-15T11:53:59.616Z,73.72
2022-11-15T11:57:09.487Z,73.51
2022-11-15T12:00:37.203Z,73.24
2022-11-15T12:04:04.298Z,74.44
2022-11-15T12:07:18.082Z,73.95
2022-11-15T12:10:31.039Z,73.44
2022-11-15T12:13:38.727Z,73.56
2022-11-15T12:16:45.291Z,73.68
2022-11-15T12:19:49.699Z,73.58
2022-11-15T12:23:23.292Z,72.94
2022-11-15T12:26:34.996Z,72.68
2022-11-15T12:29:54.304Z,73.42
2022-11-15T12:33:01.306Z,73.63
2022-11-15T12:36:11.032Z,74.26
2022-11-15T12:39:17.387Z,74.93
2022-11-15T12:42:24.964Z,74.25
2022-11-15T12:45:40.747Z,75.29
2022-11-15T12:48:45.184Z,75.81
2022-11-15T12:51:49.544Z,74.99
2022-11-15T12:54:57.276Z,74.93
2022-11-15T12:58:28.677Z,74.22
2022-11-15T13:01:33.799Z,74.91
2022-11-15T13:04:38.318Z,74.23
2022-11-15T13:07:42.805Z,75.96
2022-11-15T13:10:47.415Z,76.78
2022-11-15T13:13:51.847Z,77.60
2022-11-15T13:17:04.459Z,77.25
2022-11-15T13:20:09.217Z,76.12
2022-11-15T13:23:17.617Z,76.26
2022-11-15T13:26:22.589Z,76.32
2022-11-15T13:29:27.734Z,75.40
2022-11-15T13:32:32.970Z,75.48
2022-11-15T13:35:43.578Z,75.00
2022-11-15T13:38:57.674Z,75.21
2022-11-15T13:42:02.975Z,75.05
2022-11-15T13:45:07.828Z,75.57
2022-11-15T13:48:12.612Z,75.40
2022-11-15T13:51:45.148Z,75.70
2022-11-15T13:55:05.348Z,75.63
2022-11-15T13:58:14.158Z,75.82
2022-11-15T14:01:22.607Z,75.70
2022-11-15T14:04:31.581Z,75.38
2022-11-15T14:07:44.175Z,75.32
2022-11-15T14:10:49.009Z,75.00
2022-11-15T14:14:13.728Z,74.71
2022-11-15T14:17:39.065Z,74.42
2022-11-15T14:20:43.466Z,75.14
2022-11-15T14:23:48.613Z,74.95
2022-11-15T14:26:53.046Z,74.76
2022-11-15T14:29:57.827Z,75.20
2022-11-15T14:33:02.196Z,73.78
2022-11-15T14:36:14.441Z,73.46
2022-11-15T14:39:18.627Z,72.96
2022-11-15T14:42:24.711Z,73.21
2022-11-15T14:45:31.453Z,73.03
2022-11-15T14:48:38.236Z,72.91
2022-11-15T14:51:43.870Z,74.28
2022-11-15T14:54:48.217Z,73.83
2022-11-15T14:57:54.313Z,74.32
2022-11-15T15:00:58.837Z,74.49
2022-11-15T15:04:03.112Z,74.42
2022-11-15T15:07:07.455Z,74.66
2022-11-15T15:10:38.232Z,75.13
2022-11-15T15:13:36.354Z,74.09
2022-11-15T15:16:40.830Z,73.97
2022-11-15T15:19:45.168Z,74.08
2022-11-15T15:22:49.950Z,74.04
2022-11-15T15:25:54.941Z,74.18
2022-11-15T15:28:59.676Z,74.83
2022-11-15T15:32:04.088Z,75.56
2022-11-15T15:35:12.891Z,75.10
2022-11-15T15:38:18.821Z,74.66
2022-11-15T15:41:23.479Z,74.33
2022-11-15T15:44:29.519Z,75.26
2022-11-15T15:47:33.984Z,73.13
2022-11-15T15:50:38.419Z,73.38
2022-11-15T15:53:43.051Z,73.59
2022-11-15T15:56:52.153Z,74.86
2022-11-15T15:59:59.351Z,74.25
2022-11-15T16:03:03.945Z,74.54
2022-11-15T16:06:38.340Z,74.13
2022-11-15T16:10:01.053Z,74.37
2022-11-15T16:13:07.259Z,74.45
2022-11-15T16:16:15.633Z,74.62
2022-11-15T16:19:20.883Z,74.86
2022-11-15T16:22:25.545Z,75.62
2022-11-15T16:25:30.030Z,75.61
2022-11-15T16:28:35.681Z,75.22
2022-11-15T16:31:40.238Z,74.73
2022-11-15T16:34:48.776Z,75.09
2022-11-15T16:37:53.672Z,74.29
2022-11-15T16:40:57.814Z,75.44
2022-11-15T16:44:02.831Z,75.01
2022-11-15T16:47:07.239Z,74.54
2022-11-15T16:50:26.895Z,76.29
2022-11-15T16:53:31.280Z,75.73
2022-11-15T16:56:35.904Z,74.82
2022-11-15T16:59:40.456Z,75.81
2022-11-15T17:02:45.993Z,76.43
2022-11-15T17:05:51.158Z,76.80
2022-11-15T17:08:57.387Z,76.06
2022-11-15T17:12:01.711Z,75.15
2022-11-15T17:15:06.821Z,74.05
2022-11-15T17:18:16.318Z,74.33
2022-11-15T17:21:22.679Z,73.71
2022-11-15T17:24:27.687Z,72.69
2022-11-15T17:27:33.702Z,72.68
2022-11-15T17:30:38.266Z,73.03
2022-11-15T17:33:42.743Z,72.15
2022-11-15T17:36:47.245Z,72.97
2022-11-15T17:39:51.510Z,72.88
2022-11-15T17:42:58.255Z,72.91
2022-11-15T17:46:05.624Z,73.83
2022-11-15T17:49:09.977Z,74.60
2022-11-15T17:52:14.474Z,74.59
2022-11-15T17:55:18.819Z,74.94
2022-11-15T17:58:25.229Z,74.03
2022-11-15T18:01:32.246Z,74.29
2022-11-15T18:04:36.630Z,74.19
2022-11-15T18:07:41.037Z,74.65
2022-11-15T18:10:45.616Z,74.58
2022-11-15T18:13:53.576Z,75.00
2022-11-15T18:16:58.136Z,74.86
2022-11-15T18:20:02.727Z,75.55
2022-11-15T18:23:07.597Z,75.70
2022-11-15T18:26:17.389Z,76.09
2022-11-15T18:29:22.419Z,76.04
2022-11-15T18:32:27.179Z,77.02
2022-11-15T18:35:31.411Z,76.14
2022-11-15T18:38:36.031Z,75.08
2022-11-15T18:41:40.460Z,75.26
2022-11-15T18:44:44.613Z,75.46
2022-11-15T18:47:49.386Z,77.72
2022-11-15T18:50:54.127Z,77.64
2022-11-15T18:54:01.798Z,77.90
2022-11-15T18:57:06.218Z,77.45
2022-11-15T19:00:11.717Z,76.46
2022-11-15T19:03:20.485Z,75.05
2022-11-15T19:06:30.074Z,74.26
2022-11-15T19:09:35.239Z,73.49
2022-11-15T19:12:39.722Z,73.42
2022-11-15T19:15:44.109Z,73.78
2022-11-15T19:18:48.451Z,72.94
2022-11-15T19:21:53.721Z,72.63
2022-11-15T19:24:59.150Z,73.15
2022-11-15T19:28:03.367Z,73.04
2022-11-15T19:31:15.218Z,73.76
2022-11-15T19:34:19.940Z,74.78
2022-11-15T19:37:24.536Z,75.54
2022-11-15T19:40:28.935Z,74.23
2022-11-15T19:43:34.253Z,74.06
2022-11-15T19:46:39.547Z,74.06
2022-11-15T19:49:44.410Z,73.11
2022-11-15T19:52:48.841Z,73.39
2022-11-15T19:55:57.975Z,73.49
2022-11-15T19:59:03.590Z,73.69
2022-11-15T20:02:08.056Z,74.56
2022-11-15T20:05:18.134Z,74.77
2022-11-15T20:08:23.066Z,74.90
2022-11-15T20:11:28.887Z,74.45
2022-11-15T20:14:32.970Z,74.50
2022-11-15T20:17:37.443Z,74.22
2022-11-15T20:20:42.489Z,74.32
2022-11-15T20:23:48.557Z,73.67
2022-11-15T20:26:52.866Z,74.03
2022-11-15T20:29:57.206Z,72.49
2022-11-15T20:33:01.499Z,71.25
2022-11-15T20:36:14.451Z,69.94
2022-11-15T20:39:19.177Z,70.56
2022-11-15T20:42:23.800Z,70.37
2022-11-15T20:45:28.411Z,71.78
2022-11-15T20:48:33.219Z,72.94
2022-11-15T20:51:37.939Z,73.37
2022-11-15T20:54:42.410Z,73.47
2022-11-15T20:57:46.649Z,72.02
2022-11-15T21:00:51.280Z,71.39
2022-11-15T21:03:56.923Z,72.43
2022-11-15T21:07:01.349Z,72.22
2022-11-15T21:10:24.386Z,71.44
2022-11-15T21:13:29.100Z,71.88
2022-11-15T21:16:33.609Z,71.36
2022-11-15T21:19:38.181Z,71.28
2022-11-15T21:22:42.852Z,72.09
2022-11-15T21:25:53.383Z,71.86
2022-11-15T21:28:57.709Z,71.58
2022-11-15T21:32:06.825Z,72.26
2022-11-15T21:35:11.558Z,72.27
2022-11-15T21:38:16.482Z,72.68
2022-11-15T21:41:20.866Z,73.47
2022-11-15T21:44:25.426Z,72.92
2022-11-15T21:47:29.857Z,73.09
2022-11-15T21:50:34.058Z,72.34
2022-11-15T21:53:38.529Z,71.33
2022-11-15T21:56:44.143Z,72.82
2022-11-15T22:00:07.429Z,72.72
2022-11-15T22:03:13.165Z,72.58
2022-11-15T22:06:18.406Z,73.86
2022-11-15T22:09:22.825Z,73.72
2022-11-15T22:12:29.715Z,73.63
2022-11-15T22:15:34.382Z,73.19
2022-11-15T22:18:39.557Z,72.36
2022-11-15T22:21:44.194Z,73.34
2022-11-15T22:24:48.509Z,73.60
2022-11-15T22:27:54.252Z,72.11
2022-11-15T22:30:59.122Z,71.88
2022-11-15T22:34:03.398Z,73.13
2022-11-15T22:37:20.649Z,71.84
2022-11-15T22:40:25.667Z,71.39
2022-11-15T22:43:30.341Z,71.87
2022-11-15T22:46:34.684Z,70.82
2022-11-15T22:49:39.118Z,71.22
2022-11-15T22:52:43.468Z,71.14
2022-11-15T22:56:01.893Z,71.92
2022-11-15T22:59:06.136Z,72.61
2022-11-15T23:02:10.602Z,72.61
2022-11-15T23:05:15.037Z,71.74
2022-11-15T23:08:20.169Z,71.38
2022-11-15T23:11:42.797Z,71.65
2022-11-15T23:14:47.357Z,71.86
2022-11-15T23:17:51.618Z,71.44
2022-11-15T23:20:56.937Z,72.37
2022-11-15T23:24:01.131Z,72.05
2022-11-15T23:27:11.406Z,72.53
2022-11-15T23:30:34.104Z,72.24
2022-11-15T23:33:57.121Z,71.81
2022-11-15T23:37:01.247Z,71.19
2022-11-15T23:40:06.299Z,70.56
2022-11-15T23:43:10.812Z,70.55
2022-11-15T23:46:16.259Z,70.19
2022-11-15T23:49:20.747Z,70.50
2022-11-15T23:52:26.586Z,71.21
2022-11-15T23:55:30.982Z,69.93
2022-11-15T23:58:36.276Z,69.64
